createdAt,value
2018-08-21T00:01:46.430Z,88.80
2018-08-21T00:03:48.773Z,88.90
2018-08-21T00:05:51.039Z,88.90
2018-08-21T00:07:53.252Z,89.20
2018-08-21T00:09:55.465Z,88.90
2018-08-21T00:11:58.266Z,89.10
2018-08-21T00:14:00.443Z,88.80
2018-08-21T00:16:02.978Z,88.90
2018-08-21T00:18:05.366Z,88.80
2018-08-21T00:20:12.158Z,88.70
2018-08-21T00:22:14.410Z,89.00
2018-08-21T00:24:18.901Z,88.50
2018-08-21T00:26:21.235Z,88.90
2018-08-21T00:28:23.426Z,88.80
2018-08-21T00:30:37.128Z,88.90
2018-08-21T00:32:39.496Z,88.80
2018-08-21T00:34:41.999Z,88.30
2018-08-21T00:36:48.194Z,88.50
2018-08-21T00:38:50.372Z,88.80
2018-08-21T00:40:53.125Z,88.50
2018-08-21T00:42:55.324Z,88.50
2018-08-21T00:45:03.231Z,88.20
2018-08-21T00:47:05.538Z,88.50
2018-08-21T00:49:07.710Z,88.80
2018-08-21T00:51:09.937Z,88.40
2018-08-21T00:53:12.145Z,88.10
2018-08-21T00:55:14.338Z,88.30
2018-08-21T00:57:16.503Z,87.80
2018-08-21T00:59:19.851Z,87.90
2018-08-21T01:01:22.002Z,87.80
2018-08-21T01:03:24.170Z,88.00
2018-08-21T01:05:26.327Z,88.20
2018-08-21T01:07:28.548Z,88.20
2018-08-21T01:09:30.737Z,88.30
2018-08-21T01:11:32.982Z,88.40
2018-08-21T01:13:35.151Z,88.30
2018-08-21T01:15:37.347Z,88.10
2018-08-21T01:17:39.593Z,88.00
2018-08-21T01:19:41.764Z,88.40
2018-08-21T01:21:43.965Z,88.20
2018-08-21T01:23:46.165Z,87.90
2018-08-21T01:25:48.348Z,88.10
2018-08-21T01:27:50.511Z,88.10
2018-08-21T01:29:52.700Z,87.70
2018-08-21T01:31:54.854Z,87.60
2018-08-21T01:33:57.175Z,87.50
2018-08-21T01:35:59.294Z,87.70
2018-08-21T01:38:01.532Z,87.70
2018-08-21T01:40:04.522Z,87.70
2018-08-21T01:42:06.674Z,87.40
2018-08-21T01:44:08.894Z,87.80
2018-08-21T01:46:11.679Z,87.90
2018-08-21T01:48:13.864Z,88.40
2018-08-21T01:50:16.058Z,88.30
2018-08-21T01:52:18.306Z,88.30
2018-08-21T01:54:20.438Z,88.50
2018-08-21T01:56:23.876Z,88.80
2018-08-21T01:58:26.946Z,89.00
2018-08-21T02:00:29.106Z,89.20
2018-08-21T02:02:31.262Z,89.10
2018-08-21T02:04:33.413Z,89.10
2018-08-21T02:06:35.630Z,89.20
2018-08-21T02:08:37.795Z,89.40
2018-08-21T02:10:40.034Z,88.80
2018-08-21T02:12:42.230Z,88.70
2018-08-21T02:14:44.404Z,89.00
2018-08-21T02:16:46.582Z,88.90
2018-08-21T02:18:48.754Z,89.00
2018-08-21T02:20:50.950Z,89.00
2018-08-21T02:22:53.162Z,88.70
2018-08-21T02:24:55.860Z,88.80
2018-08-21T02:26:58.018Z,89.00
2018-08-21T02:29:00.281Z,88.80
2018-08-21T02:31:02.482Z,88.80
2018-08-21T02:33:04.662Z,88.70
2018-08-21T02:35:06.895Z,88.70
2018-08-21T02:37:09.096Z,88.50
2018-08-21T02:39:11.293Z,88.90
2018-08-21T02:41:13.477Z,88.80
2018-08-21T02:43:15.977Z,88.90
2018-08-21T02:45:19.617Z,88.70
2018-08-21T02:47:21.785Z,89.00
2018-08-21T02:49:23.948Z,89.00
2018-08-21T02:51:30.149Z,88.80
2018-08-21T02:53:32.342Z,88.70
2018-08-21T02:55:34.558Z,89.00
2018-08-21T02:57:36.762Z,88.80
2018-08-21T02:59:38.927Z,88.50
2018-08-21T03:01:46.800Z,88.90
2018-08-21T03:04:02.650Z,88.50
2018-08-21T03:06:04.894Z,88.90
2018-08-21T03:08:07.042Z,89.00
2018-08-21T03:10:10.092Z,89.00
2018-08-21T03:12:12.223Z,89.50
2018-08-21T03:14:14.658Z,88.90
2018-08-21T03:16:16.786Z,88.80
2018-08-21T03:18:19.019Z,89.10
2018-08-21T03:20:21.163Z,88.70
2018-08-21T03:22:23.301Z,88.70
2018-08-21T03:24:25.406Z,88.80
2018-08-21T03:26:27.566Z,88.50
2018-08-21T03:28:29.661Z,88.50
2018-08-21T03:30:31.783Z,88.90
2018-08-21T03:32:33.971Z,89.10
2018-08-21T03:34:36.082Z,88.80
2018-08-21T03:36:38.236Z,88.90
2018-08-21T03:38:40.407Z,89.20
2018-08-21T03:40:42.534Z,88.80
2018-08-21T03:42:44.926Z,88.50
2018-08-21T03:45:03.664Z,88.80
2018-08-21T03:47:05.783Z,88.50
2018-08-21T03:49:07.941Z,88.90
2018-08-21T03:51:10.100Z,88.90
2018-08-21T03:53:12.227Z,89.20
2018-08-21T03:55:14.378Z,89.10
2018-08-21T03:57:22.976Z,89.20
2018-08-21T03:59:25.091Z,88.90
2018-08-21T04:01:27.242Z,89.20
2018-08-21T04:03:29.365Z,89.80
2018-08-21T04:05:31.507Z,90.20
2018-08-21T04:07:33.642Z,90.20
2018-08-21T04:09:41.369Z,90.30
2018-08-21T04:11:43.539Z,90.00
2018-08-21T04:13:46.298Z,89.80
2018-08-21T04:15:48.531Z,89.50
2018-08-21T04:17:50.675Z,89.30
2018-08-21T04:19:54.831Z,89.40
2018-08-21T04:21:58.374Z,88.90
2018-08-21T04:24:00.550Z,89.10
2018-08-21T04:26:02.682Z,89.40
2018-08-21T04:28:04.840Z,89.10
2018-08-21T04:30:08.505Z,88.80
2018-08-21T04:32:10.685Z,88.90
2018-08-21T04:34:12.806Z,88.90
2018-08-21T04:36:16.428Z,89.60
2018-08-21T04:38:18.517Z,89.70
2018-08-21T04:40:20.690Z,90.00
2018-08-21T04:42:22.820Z,91.30
2018-08-21T04:44:24.939Z,91.60
2018-08-21T04:46:27.169Z,90.30
2018-08-21T04:48:29.301Z,89.50
2018-08-21T04:50:36.029Z,89.20
2018-08-21T04:52:39.681Z,88.90
2018-08-21T04:54:41.804Z,88.70
2018-08-21T04:56:43.922Z,88.40
2018-08-21T04:58:49.364Z,87.90
2018-08-21T05:00:51.404Z,88.40
2018-08-21T05:02:53.535Z,88.70
2018-08-21T05:04:55.960Z,88.70
2018-08-21T05:06:58.167Z,88.40
2018-08-21T05:09:00.282Z,88.60
2018-08-21T05:11:06.203Z,88.80
2018-08-21T05:13:08.325Z,88.70
2018-08-21T05:15:10.526Z,88.70
2018-08-21T05:17:12.751Z,88.80
2018-08-21T05:19:14.966Z,88.80
2018-08-21T05:21:17.106Z,88.20
2018-08-21T05:23:19.991Z,88.30
2018-08-21T05:25:32.325Z,87.70
2018-08-21T05:27:34.446Z,87.50
2018-08-21T05:29:36.619Z,87.70
2018-08-21T05:31:39.250Z,88.00
2018-08-21T05:33:41.418Z,87.90
2018-08-21T05:35:43.601Z,88.00
2018-08-21T05:37:45.731Z,88.40
2018-08-21T05:39:49.229Z,87.90
2018-08-21T05:41:51.546Z,87.40
2018-08-21T05:43:53.728Z,87.60
2018-08-21T05:45:56.949Z,87.50
2018-08-21T05:47:59.591Z,87.60
2018-08-21T05:50:02.038Z,87.60
2018-08-21T05:52:04.174Z,87.30
2018-08-21T05:54:06.902Z,87.70
2018-08-21T05:56:09.016Z,87.40
2018-08-21T05:58:11.423Z,87.50
2018-08-21T06:00:16.465Z,87.60
2018-08-21T06:02:20.248Z,87.40
2018-08-21T06:04:22.341Z,87.70
2018-08-21T06:06:24.470Z,87.60
2018-08-21T06:08:26.638Z,87.80
2018-08-21T06:10:29.010Z,87.80
2018-08-21T06:12:36.038Z,87.70
2018-08-21T06:14:42.779Z,87.60
2018-08-21T06:16:50.503Z,87.70
2018-08-21T06:18:53.071Z,87.30
2018-08-21T06:20:58.090Z,87.50
2018-08-21T06:23:00.512Z,87.60
2018-08-21T06:25:02.663Z,87.60
2018-08-21T06:27:04.816Z,88.00
2018-08-21T06:29:06.988Z,88.30
2018-08-21T06:31:09.168Z,88.00
2018-08-21T06:33:11.300Z,87.10
2018-08-21T06:35:13.495Z,87.20
2018-08-21T06:37:15.606Z,87.00
2018-08-21T06:39:23.642Z,86.40
2018-08-21T06:41:30.549Z,86.20
2018-08-21T06:43:32.685Z,85.70
2018-08-21T06:45:34.862Z,86.00
2018-08-21T06:47:37.015Z,85.70
2018-08-21T06:49:39.208Z,85.90
2018-08-21T06:51:41.998Z,85.80
2018-08-21T06:53:44.198Z,85.80
2018-08-21T06:55:46.298Z,85.50
2018-08-21T06:57:48.396Z,85.20
2018-08-21T06:59:51.558Z,84.70
2018-08-21T07:01:59.351Z,84.40
2018-08-21T07:04:02.394Z,84.80
2018-08-21T07:06:05.022Z,85.10
2018-08-21T07:08:09.215Z,84.50
2018-08-21T07:10:14.258Z,85.00
2018-08-21T07:12:21.009Z,84.90
2018-08-21T07:14:23.203Z,85.00
2018-08-21T07:16:25.278Z,85.60
2018-08-21T07:18:27.432Z,84.70
2018-08-21T07:20:30.498Z,83.80
2018-08-21T07:22:32.627Z,84.00
2018-08-21T07:24:41.395Z,84.40
2018-08-21T07:26:43.522Z,84.40
2018-08-21T07:28:45.662Z,84.30
2018-08-21T07:30:50.578Z,84.00
2018-08-21T07:32:52.690Z,83.60
2018-08-21T07:34:55.505Z,82.90
2018-08-21T07:36:57.675Z,83.40
2018-08-21T07:38:59.811Z,83.70
2018-08-21T07:41:01.927Z,83.50
2018-08-21T07:43:04.042Z,83.10
2018-08-21T07:45:07.659Z,82.90
2018-08-21T07:47:09.799Z,81.30
2018-08-21T07:49:11.946Z,81.60
2018-08-21T07:51:14.606Z,81.50
2018-08-21T07:53:16.728Z,81.30
2018-08-21T07:55:20.165Z,81.70
2018-08-21T07:57:22.294Z,81.80
2018-08-21T07:59:24.443Z,82.30
2018-08-21T08:01:28.899Z,82.00
2018-08-21T08:03:31.007Z,81.60
2018-08-21T08:05:33.815Z,82.10
2018-08-21T08:07:35.947Z,81.70
2018-08-21T08:09:38.249Z,81.40
2018-08-21T08:11:40.373Z,80.90
2018-08-21T08:13:42.560Z,80.90
2018-08-21T08:15:44.654Z,81.20
2018-08-21T08:17:52.570Z,80.30
2018-08-21T08:19:54.761Z,79.90
2018-08-21T08:21:56.882Z,80.80
2018-08-21T08:24:00.941Z,80.80
2018-08-21T08:26:07.677Z,80.30
2018-08-21T08:28:09.862Z,79.90
2018-08-21T08:30:12.559Z,78.80
2018-08-21T08:32:14.698Z,78.30
2018-08-21T08:34:16.802Z,79.40
2018-08-21T08:36:18.924Z,79.10
2018-08-21T08:38:21.026Z,77.60
2018-08-21T08:40:28.923Z,78.10
2018-08-21T08:42:30.927Z,78.90
2018-08-21T08:44:33.048Z,78.60
2018-08-21T08:46:35.303Z,78.40
2018-08-21T08:48:37.438Z,78.40
2018-08-21T08:50:39.576Z,78.20
2018-08-21T08:52:41.946Z,78.10
2018-08-21T08:54:44.601Z,78.50
2018-08-21T08:56:46.963Z,77.70
2018-08-21T08:58:50.112Z,78.00
2018-08-21T09:00:57.861Z,78.90
2018-08-21T09:03:00.003Z,79.90
2018-08-21T09:05:02.203Z,79.90
2018-08-21T09:07:04.414Z,79.20
2018-08-21T09:09:07.682Z,79.20
2018-08-21T09:11:10.002Z,78.30
2018-08-21T09:13:12.147Z,77.90
2018-08-21T09:15:14.250Z,77.90
2018-08-21T09:17:19.732Z,77.80
2018-08-21T09:19:21.826Z,77.50
2018-08-21T09:21:24.018Z,77.80
2018-08-21T09:23:33.382Z,78.00
2018-08-21T09:25:35.518Z,77.90
2018-08-21T09:27:38.780Z,77.50
2018-08-21T09:29:40.907Z,76.50
2018-08-21T09:31:52.438Z,76.00
2018-08-21T09:33:54.614Z,75.80
2018-08-21T09:35:56.792Z,75.40
2018-08-21T09:37:58.935Z,76.20
2018-08-21T09:40:01.484Z,75.80
2018-08-21T09:42:07.779Z,75.40
2018-08-21T09:44:09.870Z,73.90
2018-08-21T09:46:11.987Z,74.90
2018-08-21T09:48:14.273Z,74.50
2018-08-21T09:50:16.390Z,73.70
2018-08-21T09:52:18.589Z,74.80
2018-08-21T09:54:20.698Z,75.70
2018-08-21T09:56:23.774Z,75.70
2018-08-21T09:58:25.931Z,75.20
2018-08-21T10:00:33.822Z,75.20
2018-08-21T10:02:38.305Z,75.40
2018-08-21T10:04:46.147Z,75.20
2018-08-21T10:06:48.349Z,74.20
2018-08-21T10:08:54.456Z,73.80
2018-08-21T10:10:56.639Z,74.40
2018-08-21T10:12:58.808Z,74.80
2018-08-21T10:15:03.723Z,75.60
2018-08-21T10:17:06.900Z,75.00
2018-08-21T10:19:09.010Z,75.50
2018-08-21T10:21:17.694Z,74.90
2018-08-21T10:23:19.854Z,74.80
2018-08-21T10:25:22.086Z,73.10
2018-08-21T10:27:24.272Z,73.20
2018-08-21T10:29:26.403Z,72.10
2018-08-21T10:31:28.754Z,72.30
2018-08-21T10:33:31.614Z,71.10
2018-08-21T10:35:33.760Z,71.40
2018-08-21T10:37:42.479Z,72.60
2018-08-21T10:39:44.622Z,72.60
2018-08-21T10:41:46.765Z,72.10
2018-08-21T10:43:48.879Z,71.10
2018-08-21T10:45:53.386Z,69.20
2018-08-21T10:47:55.809Z,68.60
2018-08-21T10:49:58.038Z,65.20
2018-08-21T10:52:00.205Z,67.10
2018-08-21T10:54:02.333Z,68.70
2018-08-21T10:56:05.558Z,70.10
2018-08-21T10:58:07.674Z,70.90
2018-08-21T11:00:10.501Z,70.40
2018-08-21T11:02:29.971Z,70.60
2018-08-21T11:04:32.057Z,69.20
2018-08-21T11:06:34.232Z,68.10
2018-08-21T11:08:37.259Z,66.40
2018-08-21T11:10:45.262Z,64.70
2018-08-21T11:12:47.373Z,64.60
2018-08-21T11:14:50.191Z,65.50
2018-08-21T11:16:53.146Z,67.10
2018-08-21T11:18:55.299Z,66.30
2018-08-21T11:20:57.486Z,65.10
2018-08-21T11:23:00.594Z,63.70
2018-08-21T11:25:02.758Z,64.10
2018-08-21T11:27:04.913Z,61.50
2018-08-21T11:29:07.654Z,60.10
2018-08-21T11:31:09.798Z,58.80
2018-08-21T11:33:11.915Z,58.80
2018-08-21T11:35:14.232Z,59.80
2018-08-21T11:37:16.386Z,64.00
2018-08-21T11:39:18.544Z,65.20
2018-08-21T11:41:20.794Z,67.40
2018-08-21T11:43:22.933Z,68.50
2018-08-21T11:45:25.729Z,68.50
2018-08-21T11:47:27.921Z,69.10
2018-08-21T11:49:30.048Z,67.60
2018-08-21T11:51:32.165Z,66.30
2018-08-21T11:53:34.316Z,66.60
2018-08-21T11:55:36.522Z,66.30
2018-08-21T11:57:38.707Z,65.40
2018-08-21T11:59:40.930Z,65.10
2018-08-21T12:01:43.063Z,65.70
2018-08-21T12:03:45.192Z,66.00
2018-08-21T12:05:47.358Z,66.50
2018-08-21T12:07:49.590Z,65.80
2018-08-21T12:09:51.707Z,65.80
2018-08-21T12:11:53.839Z,66.30
2018-08-21T12:13:55.962Z,65.30
2018-08-21T12:15:58.170Z,66.70
2018-08-21T12:18:00.350Z,66.70
2018-08-21T12:20:02.518Z,66.20
2018-08-21T12:22:04.820Z,65.60
2018-08-21T12:24:06.947Z,66.30
2018-08-21T12:26:09.038Z,66.90
2018-08-21T12:28:11.218Z,66.90
2018-08-21T12:30:13.417Z,66.30
2018-08-21T12:32:15.552Z,65.60
2018-08-21T12:34:17.704Z,65.90
2018-08-21T12:36:19.811Z,66.00
2018-08-21T12:38:21.965Z,63.30
2018-08-21T12:40:24.122Z,60.60
2018-08-21T12:42:26.279Z,61.30
2018-08-21T12:44:28.439Z,62.10
2018-08-21T12:46:30.639Z,62.60
2018-08-21T12:48:32.813Z,61.10
2018-08-21T12:50:34.992Z,60.60
2018-08-21T12:52:37.154Z,60.90
2018-08-21T12:54:39.258Z,62.30
2018-08-21T12:56:41.442Z,63.10
2018-08-21T12:58:43.574Z,62.40
2018-08-21T13:00:45.731Z,61.40
2018-08-21T13:02:47.876Z,61.60
2018-08-21T13:04:50.074Z,61.70
2018-08-21T13:06:52.228Z,62.60
2018-08-21T13:08:54.384Z,62.90
2018-08-21T13:10:56.503Z,63.50
2018-08-21T13:12:58.655Z,62.00
2018-08-21T13:15:00.811Z,62.80
2018-08-21T13:17:09.762Z,63.40
2018-08-21T13:19:11.932Z,62.40
2018-08-21T13:21:14.085Z,63.50
2018-08-21T13:23:16.210Z,63.20
2018-08-21T13:25:18.356Z,63.30
2018-08-21T13:27:20.526Z,62.70
2018-08-21T13:29:22.689Z,64.50
2018-08-21T13:31:24.782Z,63.30
2018-08-21T13:33:26.923Z,61.30
2018-08-21T13:35:29.061Z,60.10
2018-08-21T13:37:31.188Z,60.50
2018-08-21T13:39:33.317Z,61.60
2018-08-21T13:41:35.424Z,63.00
2018-08-21T13:43:37.559Z,60.00
2018-08-21T13:45:39.749Z,57.80
2018-08-21T13:47:41.889Z,57.30
2018-08-21T13:49:44.011Z,55.30
2018-08-21T13:51:46.150Z,53.90
2018-08-21T13:53:48.330Z,54.10
2018-08-21T13:55:50.442Z,52.90
2018-08-21T13:57:52.582Z,51.50
2018-08-21T13:59:54.737Z,51.60
2018-08-21T14:01:56.881Z,51.30
2018-08-21T14:03:59.029Z,51.80
2018-08-21T14:06:01.167Z,51.50
2018-08-21T14:08:03.294Z,51.90
2018-08-21T14:10:05.551Z,51.80
2018-08-21T14:12:07.669Z,50.70
2018-08-21T14:14:09.778Z,50.50
2018-08-21T14:16:11.922Z,50.50
2018-08-21T14:18:14.078Z,50.60
2018-08-21T14:20:16.196Z,50.40
2018-08-21T14:22:18.488Z,51.10
2018-08-21T14:24:20.606Z,49.70
2018-08-21T14:26:22.688Z,50.40
2018-08-21T14:28:24.834Z,50.20
2018-08-21T14:30:26.974Z,54.90
2018-08-21T14:32:29.110Z,55.10
2018-08-21T14:34:31.230Z,54.60
2018-08-21T14:36:33.338Z,52.80
2018-08-21T14:38:35.459Z,51.50
2018-08-21T14:40:37.575Z,51.00
2018-08-21T14:42:39.680Z,51.30
2018-08-21T14:44:41.802Z,50.10
2018-08-21T14:46:43.970Z,49.70
2018-08-21T14:48:46.113Z,50.10
2018-08-21T14:50:48.958Z,48.20
2018-08-21T14:52:51.172Z,49.70
2018-08-21T14:54:53.422Z,50.30
2018-08-21T14:56:55.573Z,49.60
2018-08-21T14:58:57.718Z,50.00
2018-08-21T15:00:59.911Z,49.70
2018-08-21T15:03:02.023Z,48.20
2018-08-21T15:05:04.618Z,49.80
2018-08-21T15:07:06.898Z,49.10
2018-08-21T15:09:10.325Z,50.00
2018-08-21T15:11:12.465Z,49.70
2018-08-21T15:13:14.618Z,49.40
2018-08-21T15:15:16.774Z,49.30
2018-08-21T15:17:18.900Z,48.60
2018-08-21T15:19:21.058Z,50.70
2018-08-21T15:21:23.187Z,53.00
2018-08-21T15:23:25.317Z,54.50
2018-08-21T15:25:27.458Z,55.90
2018-08-21T15:27:29.650Z,55.60
2018-08-21T15:29:31.758Z,55.80
2018-08-21T15:31:33.926Z,55.80
2018-08-21T15:33:36.095Z,56.40
2018-08-21T15:35:46.069Z,57.90
2018-08-21T15:37:48.277Z,57.80
2018-08-21T15:39:50.613Z,58.60
2018-08-21T15:41:52.562Z,58.40
2018-08-21T15:43:54.945Z,58.50
2018-08-21T15:45:57.075Z,59.10
2018-08-21T15:47:59.207Z,59.80
2018-08-21T15:50:01.388Z,59.50
2018-08-21T15:52:03.518Z,59.70
2018-08-21T15:54:05.677Z,60.60
2018-08-21T15:56:07.794Z,61.60
2018-08-21T15:58:10.135Z,62.20
2018-08-21T16:00:12.272Z,61.60
2018-08-21T16:02:14.642Z,61.40
2018-08-21T16:04:16.756Z,61.60
2018-08-21T16:06:18.882Z,61.80
2018-08-21T16:08:21.005Z,61.80
2018-08-21T16:10:23.169Z,61.80
2018-08-21T16:12:25.651Z,61.80
2018-08-21T16:14:27.690Z,62.00
2018-08-21T16:16:29.861Z,62.40
2018-08-21T16:18:32.015Z,63.00
2018-08-21T16:20:34.149Z,62.90
2018-08-21T16:22:36.353Z,62.70
2018-08-21T16:24:38.454Z,63.30
2018-08-21T16:26:40.622Z,63.80
2018-08-21T16:28:42.758Z,64.30
2018-08-21T16:30:44.923Z,64.60
2018-08-21T16:32:47.070Z,64.70
2018-08-21T16:34:49.302Z,63.80
2018-08-21T16:36:51.443Z,64.80
2018-08-21T16:38:53.598Z,64.90
2018-08-21T16:40:55.731Z,64.80
2018-08-21T16:42:57.795Z,64.60
2018-08-21T16:44:59.914Z,64.20
2018-08-21T16:47:02.067Z,64.40
2018-08-21T16:49:04.200Z,64.90
2018-08-21T16:51:06.334Z,65.00
2018-08-21T16:53:08.505Z,65.10
2018-08-21T16:55:10.639Z,65.80
2018-08-21T16:57:12.782Z,65.60
2018-08-21T16:59:14.958Z,65.40
2018-08-21T17:01:17.137Z,65.10
2018-08-21T17:03:19.272Z,65.10
2018-08-21T17:05:21.431Z,65.80
2018-08-21T17:07:23.579Z,65.90
2018-08-21T17:09:25.747Z,65.60
2018-08-21T17:11:27.882Z,65.70
2018-08-21T17:13:29.974Z,66.20
2018-08-21T17:15:32.097Z,66.30
2018-08-21T17:17:34.248Z,66.50
2018-08-21T17:19:36.396Z,66.50
2018-08-21T17:21:38.585Z,66.60
2018-08-21T17:23:40.673Z,66.10
2018-08-21T17:25:42.784Z,66.00
2018-08-21T17:27:44.932Z,66.10
2018-08-21T17:29:47.062Z,66.10
2018-08-21T17:31:49.173Z,66.40
2018-08-21T17:33:51.660Z,66.30
2018-08-21T17:35:53.769Z,66.60
2018-08-21T17:37:55.890Z,67.00
2018-08-21T17:39:58.022Z,67.40
2018-08-21T17:42:00.126Z,68.10
2018-08-21T17:44:02.281Z,68.40
2018-08-21T17:46:04.523Z,67.90
2018-08-21T17:48:06.642Z,67.20
2018-08-21T17:50:08.744Z,67.00
2018-08-21T17:52:10.906Z,67.30
2018-08-21T17:54:13.038Z,68.30
2018-08-21T17:56:15.148Z,69.30
2018-08-21T17:58:17.250Z,68.70
2018-08-21T18:00:19.375Z,68.20
2018-08-21T18:02:21.543Z,68.30
2018-08-21T18:04:23.641Z,68.20
2018-08-21T18:06:25.765Z,68.90
2018-08-21T18:08:28.336Z,69.10
2018-08-21T18:10:30.550Z,69.30
2018-08-21T18:12:32.669Z,69.00
2018-08-21T18:14:34.795Z,70.10
2018-08-21T18:16:36.910Z,70.00
2018-08-21T18:18:39.023Z,70.70
2018-08-21T18:20:41.115Z,70.50
2018-08-21T18:22:43.229Z,70.70
2018-08-21T18:24:45.382Z,70.80
2018-08-21T18:26:47.530Z,71.80
2018-08-21T18:28:49.663Z,72.10
2018-08-21T18:33:00.814Z,72.10
2018-08-21T18:35:03.018Z,72.00
2018-08-21T18:37:05.173Z,71.70
2018-08-21T18:39:08.374Z,71.70
2018-08-21T18:41:10.733Z,72.40
2018-08-21T18:43:12.854Z,72.50
2018-08-21T18:45:14.978Z,72.60
2018-08-21T18:47:17.160Z,72.70
2018-08-21T18:49:19.266Z,72.80
2018-08-21T18:51:21.396Z,72.80
2018-08-21T18:53:23.874Z,72.90
2018-08-21T18:55:26.033Z,72.90
2018-08-21T18:57:28.448Z,73.00
2018-08-21T18:59:30.578Z,73.10
2018-08-21T19:01:32.716Z,73.40
2018-08-21T19:03:34.809Z,73.70
2018-08-21T19:05:36.939Z,73.90
2018-08-21T19:07:39.042Z,74.30
2018-08-21T19:09:47.796Z,74.30
2018-08-21T19:11:55.288Z,74.40
2018-08-21T19:13:57.542Z,74.90
2018-08-21T19:16:00.426Z,75.20
2018-08-21T19:18:02.828Z,75.70
2018-08-21T19:20:04.987Z,76.10
2018-08-21T19:22:07.104Z,76.80
2018-08-21T19:24:09.292Z,77.10
2018-08-21T19:26:11.415Z,77.50
2018-08-21T19:28:13.522Z,77.60
2018-08-21T19:30:15.781Z,77.50
2018-08-21T19:32:17.904Z,77.40
2018-08-21T19:34:20.001Z,77.80
2018-08-21T19:36:22.195Z,77.80
2018-08-21T19:38:24.310Z,77.90
2018-08-21T19:40:26.418Z,78.10
2018-08-21T19:42:28.751Z,78.00
2018-08-21T19:44:31.036Z,78.10
2018-08-21T19:46:33.558Z,78.20
2018-08-21T19:48:35.737Z,78.60
2018-08-21T19:50:38.231Z,78.70
2018-08-21T19:52:40.342Z,78.90
2018-08-21T19:54:42.567Z,78.80
2018-08-21T19:56:44.671Z,78.80
2018-08-21T19:58:46.810Z,78.80
2018-08-21T20:00:49.101Z,78.70
2018-08-21T20:02:51.521Z,78.70
2018-08-21T20:04:53.614Z,78.70
2018-08-21T20:06:55.758Z,79.00
2018-08-21T20:08:57.867Z,78.80
2018-08-21T20:10:59.975Z,78.90
2018-08-21T20:13:02.173Z,79.20
2018-08-21T20:15:05.046Z,79.20
2018-08-21T20:17:07.174Z,79.40
2018-08-21T20:19:09.356Z,79.60
2018-08-21T20:21:13.894Z,79.80
2018-08-21T20:23:16.887Z,79.90
2018-08-21T20:25:20.003Z,79.90
2018-08-21T20:27:22.524Z,80.00
2018-08-21T20:29:25.089Z,80.10
2018-08-21T20:31:27.563Z,80.00
2018-08-21T20:33:30.307Z,80.10
2018-08-21T20:35:32.656Z,80.10
2018-08-21T20:37:35.346Z,80.00
2018-08-21T20:39:38.034Z,80.00
2018-08-21T20:41:42.203Z,80.20
2018-08-21T20:43:44.448Z,80.10
2018-08-21T20:45:48.485Z,80.00
2018-08-21T20:47:50.727Z,80.10
2018-08-21T20:49:53.850Z,80.20
2018-08-21T20:51:57.017Z,80.60
2018-08-21T20:53:59.487Z,81.00
2018-08-21T20:56:02.792Z,80.60
2018-08-21T20:58:05.145Z,80.60
2018-08-21T21:00:07.740Z,80.40
2018-08-21T21:02:10.144Z,80.90
2018-08-21T21:04:12.474Z,81.00
2018-08-21T21:06:14.603Z,80.90
2018-08-21T21:08:17.710Z,80.90
2018-08-21T21:10:20.279Z,80.80
2018-08-21T21:12:24.253Z,81.00
2018-08-21T21:14:38.235Z,80.70
2018-08-21T21:16:52.169Z,81.00
2018-08-21T21:19:05.932Z,81.00
2018-08-21T21:21:23.112Z,81.20
2018-08-21T21:23:26.550Z,81.60
2018-08-21T21:25:35.161Z,81.10
2018-08-21T21:27:37.454Z,81.40
2018-08-21T21:29:39.816Z,81.80
2018-08-21T21:31:43.040Z,81.40
2018-08-21T21:33:45.222Z,80.90
2018-08-21T21:35:48.035Z,81.10
2018-08-21T21:37:50.428Z,81.10
2018-08-21T21:39:53.071Z,81.70
2018-08-21T21:41:56.197Z,81.60
2018-08-21T21:43:58.535Z,81.80
2018-08-21T21:46:00.864Z,81.60
2018-08-21T21:48:04.029Z,81.40
2018-08-21T21:50:07.139Z,81.50
2018-08-21T21:52:09.511Z,81.40
2018-08-21T21:54:11.906Z,81.60
2018-08-21T21:56:14.117Z,81.80
2018-08-21T21:58:16.593Z,82.00
2018-08-21T22:00:19.209Z,82.20
2018-08-21T22:02:21.698Z,82.60
2018-08-21T22:04:25.050Z,82.60
2018-08-21T22:06:27.441Z,82.70
2018-08-21T22:08:29.759Z,82.70
2018-08-21T22:10:32.249Z,83.10
2018-08-21T22:12:34.686Z,83.00
2018-08-21T22:14:37.045Z,83.30
2018-08-21T22:16:40.115Z,83.50
2018-08-21T22:18:42.662Z,83.30
2018-08-21T22:20:45.108Z,83.60
2018-08-21T22:22:47.273Z,83.90
2018-08-21T22:24:49.399Z,84.20
2018-08-21T22:26:52.068Z,84.30
2018-08-21T22:28:54.459Z,84.10
2018-08-21T22:30:56.867Z,84.30
2018-08-21T22:32:59.404Z,84.20
2018-08-21T22:35:01.735Z,84.30
2018-08-21T22:37:04.431Z,84.20
2018-08-21T22:39:08.208Z,84.20
2018-08-21T22:41:10.559Z,84.30
2018-08-21T22:43:13.797Z,84.40
2018-08-21T22:45:15.945Z,84.40
2018-08-21T22:47:18.562Z,84.30
2018-08-21T22:49:20.979Z,84.40
2018-08-21T22:51:23.095Z,84.60
2018-08-21T22:53:25.243Z,84.30
2018-08-21T22:55:27.386Z,84.20
2018-08-21T22:57:29.516Z,84.10
2018-08-21T22:59:31.666Z,84.20
2018-08-21T23:01:33.813Z,84.20
2018-08-21T23:03:42.795Z,84.00
2018-08-21T23:05:44.994Z,83.80
2018-08-21T23:07:47.125Z,83.60
2018-08-21T23:09:49.273Z,83.40
2018-08-21T23:11:51.402Z,83.40
2018-08-21T23:13:53.510Z,83.10
2018-08-21T23:15:55.637Z,82.70
2018-08-21T23:17:57.779Z,82.60
2018-08-21T23:19:59.902Z,82.40
2018-08-21T23:22:02.023Z,82.20
2018-08-21T23:24:04.461Z,82.20
2018-08-21T23:26:06.559Z,82.00
2018-08-21T23:28:08.715Z,81.80
2018-08-21T23:30:10.857Z,81.80
2018-08-21T23:32:13.034Z,82.20
2018-08-21T23:34:15.142Z,82.10
2018-08-21T23:36:17.397Z,81.80
2018-08-21T23:38:19.533Z,81.70
2018-08-21T23:40:21.651Z,81.70
2018-08-21T23:42:23.792Z,81.70
2018-08-21T23:44:25.905Z,81.90
2018-08-21T23:46:28.026Z,81.70
2018-08-21T23:48:30.524Z,81.90
2018-08-21T23:50:32.666Z,81.70
2018-08-21T23:52:34.771Z,81.70
2018-08-21T23:54:37.031Z,81.70
2018-08-21T23:56:39.154Z,81.90
2018-08-21T23:58:41.284Z,81.90
